Time;durP1;ratioP1;P1;durP2;ratioP2;P2;SDS_P1;SDS_P2;PMS_P1;PMS_P2;Temp;Humidity;BMP_temperature;BMP_pressure;BME280_temperature;BME280_humidity;BME280_pressure;Samples;Min_cycle;Max_cycle;Signal;HPM_P1;HPM_P2
2022/10/07 00:00:03;;;;;;;;;;;9.70;99.90;;;;;;3060821;19;20078;-69
2022/10/07 00:01:05;;;;;;;7.82;2.50;;;10.10;99.90;;;;;;3058691;19;19911;-71
2022/10/07 00:02:09;;;;;;;7.35;2.33;;;10.10;99.90;;;;;;3060939;19;20014;-70
2022/10/07 00:03:10;;;;;;;9.52;2.60;;;10.10;99.90;;;;;;3057563;19;20018;-71
2022/10/07 00:04:14;;;;;;;9.32;2.47;;;10.10;99.90;;;;;;3058938;19;20007;-70
2022/10/07 00:05:18;;;;;;;8.75;3.03;;;10.80;99.90;;;;;;3060741;19;20479;-71
2022/10/07 00:06:24;;;;;;;9.65;2.85;;;9.70;99.90;;;;;;3058812;19;20025;-70
2022/10/07 00:07:25;;;;;;;12.52;3.45;;;9.70;99.90;;;;;;3061237;19;20017;-70
2022/10/07 00:08:26;;;;;;;11.20;2.80;;;9.70;99.90;;;;;;3059386;19;20014;-71
2022/10/07 00:09:30;;;;;;;8.27;2.40;;;9.60;99.90;;;;;;3058274;19;20034;-69
2022/10/07 00:10:35;;;;;;;10.98;2.95;;;9.40;99.90;;;;;;3057231;19;20069;-69
2022/10/07 00:11:39;;;;;;;7.55;2.90;;;10.00;99.90;;;;;;3058014;19;20491;-69
2022/10/07 00:12:41;;;;;;;7.00;2.67;;;9.60;99.90;;;;;;3058044;19;20021;-69
2022/10/07 00:13:46;;;;;;;6.57;2.42;;;9.60;99.90;;;;;;3058199;19;20030;-69
2022/10/07 00:14:48;;;;;;;6.80;2.70;;;9.40;99.90;;;;;;3055032;19;20384;-69
2022/10/07 00:15:51;;;;;;;7.68;2.30;;;9.60;99.90;;;;;;3058181;19;20028;-69
2022/10/07 00:16:53;;;;;;;8.18;2.85;;;9.60;99.90;;;;;;3058215;19;20010;-69
2022/10/07 00:17:57;;;;;;;6.97;2.78;;;10.10;99.90;;;;;;3058016;19;20807;-69
2022/10/07 00:19:01;;;;;;;8.82;3.00;;;9.60;99.90;;;;;;3059113;19;20495;-69
2022/10/07 00:20:05;;;;;;;7.65;2.38;;;10.10;99.90;;;;;;3058466;19;20368;-69
2022/10/07 00:21:11;;;;;;;7.57;2.60;;;9.60;99.90;;;;;;3057750;19;20022;-69
2022/10/07 00:22:15;;;;;;;7.93;3.17;;;9.60;99.90;;;;;;3057378;19;20010;-70
2022/10/07 00:23:16;;;;;;;10.90;3.28;;;9.60;99.90;;;;;;3057959;19;20017;-69
2022/10/07 00:24:20;;;;;;;8.60;2.90;;;9.90;99.90;;;;;;3056969;19;20467;-70
2022/10/07 00:25:21;;;;;;;9.88;2.90;;;9.80;99.90;;;;;;3057571;19;20018;-69
2022/10/07 00:26:27;;;;;;;12.18;2.95;;;9.60;99.90;;;;;;3057677;19;20014;-70
2022/10/07 00:27:28;;;;;;;8.35;3.00;;;9.50;99.90;;;;;;3057831;19;20098;-69
2022/10/07 00:28:33;;;;;;;6.97;2.63;;;9.60;99.90;;;;;;3057326;19;20023;-69
2022/10/07 00:29:34;;;;;;;7.90;2.72;;;9.70;99.90;;;;;;3058277;19;20006;-70
2022/10/07 00:30:38;;;;;;;6.85;2.63;;;9.40;99.90;;;;;;3057912;19;20043;-69
2022/10/07 00:31:40;;;;;;;7.40;3.17;;;9.60;99.90;;;;;;3057851;19;20015;-69
2022/10/07 00:32:44;;;;;;;6.68;2.67;;;9.80;99.90;;;;;;3058156;19;20010;-69
2022/10/07 00:33:46;;;;;;;11.68;2.85;;;9.70;99.90;;;;;;3059913;19;20022;-69
2022/10/07 00:34:50;;;;;;;8.27;2.50;;;9.70;99.90;;;;;;3056598;19;20045;-69
2022/10/07 00:35:51;;;;;;;11.43;2.88;;;9.60;99.90;;;;;;3056860;19;20014;-69
2022/10/07 00:36:57;;;;;;;5.75;3.13;;;8.90;99.90;;;;;;3058028;19;20014;-70
2022/10/07 00:37:59;;;;;;;11.85;2.90;;;9.60;99.90;;;;;;3056564;19;20431;-70
2022/10/07 00:39:05;;;;;;;6.40;2.65;;;9.90;99.90;;;;;;3057060;19;20017;-70
2022/10/07 00:40:10;;;;;;;8.05;2.65;;;9.50;99.90;;;;;;3057712;19;20371;-70
2022/10/07 00:41:19;;;;;;;8.40;3.03;;;9.70;99.90;;;;;;3056939;19;20018;-70
2022/10/07 00:42:20;;;;;;;6.82;2.80;;;9.60;99.90;;;;;;3056583;19;20019;-70
2022/10/07 00:43:28;;;;;;;10.40;3.08;;;9.70;99.90;;;;;;3058954;19;20010;-70
2022/10/07 00:44:38;;;;;;;10.20;3.00;;;9.80;99.90;;;;;;3057274;19;20364;-70
2022/10/07 00:45:44;;;;;;;8.60;3.22;;;9.50;99.90;;;;;;3056523;19;20365;-70
2022/10/07 00:46:46;;;;;;;10.57;3.25;;;9.70;99.90;;;;;;3057681;19;20347;-70
2022/10/07 00:47:51;;;;;;;11.38;2.92;;;9.60;99.90;;;;;;3057772;19;20039;-70
2022/10/07 00:48:54;;;;;;;8.30;3.08;;;9.40;99.90;;;;;;3058429;19;20373;-69
2022/10/07 00:50:03;;;;;;;8.80;2.75;;;9.60;99.90;;;;;;3056723;19;20066;-69
2022/10/07 00:51:06;;;;;;;13.98;3.80;;;9.50;99.90;;;;;;3058480;19;20018;-69
2022/10/07 00:52:13;;;;;;;8.07;3.22;;;9.80;99.90;;;;;;3057644;19;20007;-70
2022/10/07 00:53:15;;;;;;;8.38;3.38;;;10.00;99.90;;;;;;3058976;19;20011;-69
2022/10/07 00:54:21;;;;;;;10.80;3.53;;;9.50;99.90;;;;;;3056229;19;20014;-69
2022/10/07 00:55:25;;;;;;;7.55;3.03;;;9.70;99.90;;;;;;3056973;19;20014;-69
2022/10/07 00:56:29;;;;;;;11.55;3.45;;;9.60;99.90;;;;;;3057021;19;20011;-70
2022/10/07 00:57:32;;;;;;;9.75;3.00;;;9.30;99.90;;;;;;3058105;19;20511;-69
2022/10/07 00:58:38;;;;;;;12.95;3.72;;;9.80;99.90;;;;;;3058454;19;20018;-69
2022/10/07 00:59:40;;;;;;;6.88;3.05;;;9.50;99.90;;;;;;3056499;19;20015;-69
2022/10/07 01:00:44;;;;;;;9.80;3.17;;;9.90;99.90;;;;;;3059462;19;20022;-69
2022/10/07 01:01:45;;;;;;;10.82;3.45;;;9.50;99.90;;;;;;3058300;19;20010;-70
2022/10/07 01:02:50;;;;;;;9.70;2.90;;;9.70;99.90;;;;;;3056844;19;20023;-69
2022/10/07 01:03:53;;;;;;;10.30;3.35;;;9.60;99.90;;;;;;3056944;19;20015;-69
2022/10/07 01:05:00;;;;;;;9.13;3.30;;;9.60;99.90;;;;;;3058096;19;20043;-69
2022/10/07 01:06:09;;;;;;;9.55;2.97;;;9.40;99.90;;;;;;3057891;19;20502;-69
2022/10/07 01:07:19;;;;;;;12.75;3.47;;;9.30;99.90;;;;;;3057603;19;20040;-69
2022/10/07 01:08:21;;;;;;;8.75;3.35;;;9.50;99.90;;;;;;3060692;19;20018;-70
2022/10/07 01:09:26;;;;;;;8.55;3.33;;;9.20;99.90;;;;;;3059463;19;20379;-70
2022/10/07 01:10:34;;;;;;;7.70;3.15;;;9.30;99.90;;;;;;3059701;19;22239;-70
2022/10/07 01:11:46;;;;;;;9.75;3.63;;;9.40;99.90;;;;;;3059611;19;20483;-70
2022/10/07 01:13:02;;;;;;;9.85;3.20;;;9.50;99.90;;;;;;3060781;19;20345;-69
2022/10/07 01:14:14;;;;;;;8.30;2.83;;;9.50;99.90;;;;;;3056335;19;20448;-69
2022/10/07 01:15:23;;;;;;;11.52;3.40;;;9.40;99.90;;;;;;3061216;19;20019;-69
2022/10/07 01:16:33;;;;;;;10.95;3.28;;;9.20;99.90;;;;;;3059465;19;20018;-69
2022/10/07 01:17:40;;;;;;;10.35;3.55;;;9.40;99.90;;;;;;3059493;19;20018;-69
2022/10/07 01:18:51;;;;;;;11.15;3.80;;;9.30;99.90;;;;;;3058532;19;20027;-69
2022/10/07 01:20:15;;;;;;;6.38;3.40;;;9.30;99.90;;;;;;3059252;19;20116;-69
2022/10/07 01:21:31;;;;;;;7.88;3.30;;;9.40;99.90;;;;;;3060740;19;20013;-69
2022/10/07 01:22:43;;;;;;;12.50;3.78;;;9.70;99.90;;;;;;3059869;19;20103;-69
2022/10/07 01:24:04;;;;;;;8.05;3.05;;;9.30;99.90;;;;;;3060284;19;20413;-69
2022/10/07 01:25:31;;;;;;;12.95;3.60;;;9.30;99.90;;;;;;3059415;19;20202;-71
2022/10/07 01:26:48;;;;;;;10.30;3.40;;;9.40;99.90;;;;;;3058963;19;20018;-70
2022/10/07 01:27:53;;;;;;;6.40;3.28;;;9.20;99.90;;;;;;3058981;19;20006;-70
2022/10/07 01:29:00;;;;;;;7.35;3.13;;;8.90;99.90;;;;;;3061296;19;20014;-70
2022/10/07 01:30:05;;;;;;;11.52;3.55;;;9.20;99.90;;;;;;3059411;19;19998;-69
2022/10/07 01:31:14;;;;;;;10.35;3.30;;;9.10;99.90;;;;;;3060895;19;20022;-69
2022/10/07 01:32:21;;;;;;;15.25;3.55;;;9.10;99.90;;;;;;3059423;19;20470;-69
2022/10/07 01:33:30;;;;;;;7.05;3.30;;;9.30;99.90;;;;;;3061808;19;20094;-70
2022/10/07 01:34:34;;;;;;;9.02;3.58;;;9.50;99.90;;;;;;3059376;19;20018;-70
2022/10/07 01:35:39;;;;;;;10.50;3.78;;;9.50;99.90;;;;;;3062749;19;20064;-69
2022/10/07 01:36:50;;;;;;;11.82;3.80;;;9.30;99.90;;;;;;3059940;19;20019;-69
2022/10/07 01:37:59;;;;;;;10.63;3.90;;;9.10;99.90;;;;;;3059668;19;20032;-70
2022/10/07 01:39:03;;;;;;;10.05;3.60;;;9.10;99.90;;;;;;3060226;19;20039;-70
2022/10/07 01:40:13;;;;;;;11.23;4.18;;;9.20;99.90;;;;;;3058389;19;20009;-70
2022/10/07 01:41:17;;;;;;;7.82;3.30;;;9.10;99.90;;;;;;3059922;19;20010;-70
2022/10/07 01:42:26;;;;;;;9.57;3.40;;;9.10;99.90;;;;;;3059200;19;20018;-70
2022/10/07 01:43:28;;;;;;;12.52;4.05;;;8.80;99.90;;;;;;3059681;19;20040;-69
2022/10/07 01:44:32;;;;;;;8.95;3.85;;;9.30;99.90;;;;;;3058551;19;20018;-69
2022/10/07 01:45:39;;;;;;;6.43;3.70;;;9.10;99.90;;;;;;3060156;19;20029;-69
2022/10/07 01:46:46;;;;;;;14.40;4.28;;;9.00;99.90;;;;;;3058629;19;20025;-70
2022/10/07 01:47:48;;;;;;;9.77;3.72;;;9.50;99.90;;;;;;3059651;19;20476;-70
2022/10/07 01:48:53;;;;;;;11.13;3.75;;;9.20;99.90;;;;;;3059101;19;20018;-70
2022/10/07 01:49:54;;;;;;;12.45;3.70;;;;;;;;;;3059668;19;20067;-70
2022/10/07 01:50:59;;;;;;;9.55;3.58;;;9.30;99.90;;;;;;3059152;19;20010;-71
2022/10/07 01:52:25;;;;;;;12.02;4.15;;;9.00;99.90;;;;;;3060274;19;20010;-70
2022/10/07 01:53:41;;;;;;;12.27;3.80;;;9.60;99.90;;;;;;3061601;19;20022;-69
2022/10/07 01:55:03;;;;;;;10.45;4.18;;;9.60;99.90;;;;;;3058993;19;20027;-69
2022/10/07 01:56:35;;;;;;;7.70;4.03;;;9.30;99.90;;;;;;3058523;19;20025;-70
2022/10/07 01:57:47;;;;;;;7.17;4.03;;;9.30;99.90;;;;;;3059876;19;20002;-70
2022/10/07 01:59:09;;;;;;;12.27;3.70;;;8.90;99.90;;;;;;3061650;19;20264;-70
2022/10/07 02:00:11;;;;;;;10.77;3.60;;;9.00;99.90;;;;;;3059980;19;20014;-70
2022/10/07 02:01:22;;;;;;;11.55;3.80;;;9.10;99.90;;;;;;3061444;19;20010;-69
2022/10/07 02:02:42;;;;;;;11.38;3.53;;;9.10;99.90;;;;;;3060571;19;20728;-69
2022/10/07 02:04:14;;;;;;;11.88;4.03;;;9.20;99.90;;;;;;3058559;19;20015;-69
2022/10/07 02:05:23;;;;;;;10.23;3.60;;;9.50;99.90;;;;;;3059748;19;20070;-69
2022/10/07 02:06:37;;;;;;;14.48;3.90;;;8.80;99.90;;;;;;3058736;19;20018;-69
2022/10/07 02:07:51;;;;;;;8.85;3.92;;;9.40;99.90;;;;;;3059676;19;20397;-69
2022/10/07 02:08:59;;;;;;;10.98;3.75;;;9.10;99.90;;;;;;3059526;19;20011;-69
2022/10/07 02:10:11;;;;;;;12.05;3.70;;;9.50;99.90;;;;;;3059620;19;20356;-69
2022/10/07 02:11:17;;;;;;;13.52;4.70;;;9.10;99.90;;;;;;3058088;19;20051;-69
2022/10/07 02:12:27;;;;;;;9.70;3.35;;;8.80;99.90;;;;;;3059616;19;19998;-69
2022/10/07 02:13:38;;;;;;;7.57;3.75;;;9.30;99.90;;;;;;3060518;19;20018;-69
2022/10/07 02:14:45;;;;;;;8.80;3.70;;;9.10;99.90;;;;;;3058307;19;20019;-69
2022/10/07 02:15:54;;;;;;;9.82;3.83;;;9.20;99.90;;;;;;3060855;19;20018;-69
2022/10/07 02:17:03;;;;;;;8.20;3.58;;;8.90;99.90;;;;;;3058865;19;20026;-69
2022/10/07 02:18:11;;;;;;;10.45;3.88;;;8.70;99.90;;;;;;3059259;19;20011;-69
2022/10/07 02:19:17;;;;;;;8.40;3.78;;;9.00;99.90;;;;;;3057933;19;20029;-70
2022/10/07 02:20:23;;;;;;;11.73;4.40;;;9.30;99.90;;;;;;3059126;19;20022;-70
2022/10/07 02:21:28;;;;;;;10.18;3.83;;;9.10;99.90;;;;;;3058867;19;20022;-70
2022/10/07 02:22:34;;;;;;;11.23;3.70;;;9.10;99.90;;;;;;3059277;19;20036;-69
2022/10/07 02:23:38;;;;;;;9.18;3.83;;;8.90;99.90;;;;;;3060150;19;20026;-69
2022/10/07 02:24:43;;;;;;;11.43;3.78;;;9.00;99.90;;;;;;3058578;19;20018;-71
2022/10/07 02:25:47;;;;;;;7.38;3.35;;;8.90;99.90;;;;;;3060404;19;20021;-70
2022/10/07 02:26:53;;;;;;;11.77;4.00;;;8.90;99.90;;;;;;3059857;19;20026;-70
2022/10/07 02:28:02;;;;;;;8.98;3.90;;;8.80;99.90;;;;;;3059364;19;20033;-70
2022/10/07 02:29:08;;;;;;;11.52;3.85;;;8.90;99.90;;;;;;3059474;19;20518;-70
2022/10/07 02:30:15;;;;;;;11.82;4.35;;;8.90;99.90;;;;;;3058875;19;20018;-69
2022/10/07 02:31:21;;;;;;;9.05;3.55;;;8.90;99.90;;;;;;3059860;19;20014;-69
2022/10/07 02:32:29;;;;;;;10.38;3.75;;;8.80;99.90;;;;;;3059778;19;20030;-69
2022/10/07 02:33:32;;;;;;;12.20;3.85;;;9.30;99.90;;;;;;3060187;19;20015;-69
2022/10/07 02:34:37;;;;;;;9.30;3.47;;;8.80;99.90;;;;;;3057372;19;20019;-69
2022/10/07 02:35:44;;;;;;;9.13;3.47;;;9.10;99.90;;;;;;3060202;19;20018;-69
2022/10/07 02:36:53;;;;;;;10.63;3.92;;;9.00;99.90;;;;;;3059254;19;20022;-69
2022/10/07 02:37:58;;;;;;;6.78;3.45;;;8.80;99.90;;;;;;3058622;19;20022;-68
2022/10/07 02:39:02;;;;;;;10.90;3.95;;;9.00;99.90;;;;;;3059534;19;20021;-69
2022/10/07 02:40:05;;;;;;;11.07;4.00;;;9.00;99.90;;;;;;3059516;19;20006;-69
2022/10/07 02:41:29;;;;;;;10.75;3.50;;;8.90;99.90;;;;;;3059396;19;20089;-69
2022/10/07 02:42:40;;;;;;;13.18;4.10;;;8.90;99.90;;;;;;3061348;19;20010;-70
2022/10/07 02:43:45;;;;;;;13.45;4.03;;;8.90;99.90;;;;;;3058768;19;20022;-70
2022/10/07 02:44:53;;;;;;;10.27;3.70;;;8.70;99.90;;;;;;3059841;19;20029;-70
2022/10/07 02:46:02;;;;;;;11.25;3.75;;;8.70;99.90;;;;;;3060475;19;20026;-70
2022/10/07 02:47:10;;;;;;;11.95;4.05;;;8.60;99.90;;;;;;3059515;19;20018;-70
2022/10/07 02:48:17;;;;;;;10.77;4.32;;;8.80;99.90;;;;;;3058438;19;20010;-70
2022/10/07 02:49:24;;;;;;;9.90;3.65;;;8.80;99.90;;;;;;3058505;19;20010;-70
2022/10/07 02:50:33;;;;;;;14.98;4.20;;;8.80;99.90;;;;;;3059291;19;20491;-70
2022/10/07 02:51:41;;;;;;;8.82;3.80;;;9.20;99.90;;;;;;3058844;19;20022;-70
2022/10/07 02:52:44;;;;;;;10.60;3.80;;;9.00;99.90;;;;;;3058976;19;20024;-70
2022/10/07 02:53:50;;;;;;;9.93;3.67;;;9.00;99.90;;;;;;3057993;19;20007;-70
2022/10/07 02:54:57;;;;;;;8.65;3.70;;;8.90;99.90;;;;;;3058871;19;20022;-70
2022/10/07 02:56:03;;;;;;;9.75;3.60;;;8.80;99.90;;;;;;3057921;19;20035;-70
2022/10/07 02:57:06;;;;;;;14.85;4.38;;;9.20;99.90;;;;;;3057179;19;20022;-70
2022/10/07 02:58:12;;;;;;;15.50;4.10;;;8.80;99.90;;;;;;3058946;19;20095;-70
2022/10/07 02:59:14;;;;;;;10.02;3.47;;;9.30;99.90;;;;;;3059291;19;20014;-70
2022/10/07 03:00:22;;;;;;;12.93;4.07;;;8.90;99.90;;;;;;3059019;19;20036;-70
2022/10/07 03:01:29;;;;;;;11.20;3.83;;;8.70;99.90;;;;;;3061050;19;20018;-70
2022/10/07 03:02:42;;;;;;;9.88;4.00;;;8.60;99.90;;;;;;3057907;19;20028;-70
2022/10/07 03:03:44;;;;;;;9.30;3.55;;;8.80;99.90;;;;;;3059101;19;20037;-70
2022/10/07 03:04:48;;;;;;;;;;;9.00;99.90;;;;;;3058744;19;20026;-70
2022/10/07 03:05:49;;;;;;;11.18;4.20;;;;;;;;;;3059445;19;20276;-70
2022/10/07 03:06:53;;;;;;;11.68;3.83;;;8.80;99.90;;;;;;3059103;19;20007;-70
2022/10/07 03:07:57;;;;;;;7.18;3.33;;;8.70;99.90;;;;;;3057317;19;20018;-70
2022/10/07 03:09:01;;;;;;;9.63;3.55;;;8.70;99.90;;;;;;3056923;19;20031;-70
2022/10/07 03:10:04;;;;;;;11.57;3.70;;;8.80;99.90;;;;;;3058920;19;20025;-70
2022/10/07 03:11:08;;;;;;;12.07;3.92;;;8.80;99.90;;;;;;3058279;19;20015;-70
2022/10/07 03:12:09;;;;;;;9.85;3.70;;;8.80;99.90;;;;;;3060664;19;20038;-70
2022/10/07 03:13:14;;;;;;;8.70;4.25;;;8.90;99.90;;;;;;3059161;19;20025;-70
2022/10/07 03:14:15;;;;;;;12.02;4.25;;;8.70;99.90;;;;;;3057271;19;20014;-70
2022/10/07 03:15:22;;;;;;;12.90;3.83;;;8.90;99.90;;;;;;3058331;19;20466;-70
2022/10/07 03:16:23;;;;;;;11.05;3.90;;;8.90;99.90;;;;;;3058359;19;20494;-70
2022/10/07 03:17:27;;;;;;;13.13;3.33;;;8.80;99.90;;;;;;3058058;19;20027;-70
2022/10/07 03:18:28;;;;;;;10.40;4.13;;;8.70;99.90;;;;;;3059295;19;20018;-70
2022/10/07 03:19:32;;;;;;;11.07;4.25;;;9.10;99.90;;;;;;3058474;19;20026;-70
2022/10/07 03:20:33;;;;;;;14.43;3.85;;;8.90;99.90;;;;;;3059019;19;20006;-70
2022/10/07 03:21:40;;;;;;;13.55;4.18;;;8.80;99.90;;;;;;3059671;19;20038;-70
2022/10/07 03:22:42;;;;;;;12.35;4.22;;;8.90;99.90;;;;;;3057628;19;20031;-70
2022/10/07 03:23:46;;;;;;;9.70;3.92;;;8.50;99.90;;;;;;3056287;19;20074;-70
2022/10/07 03:24:47;;;;;;;9.00;3.72;;;9.20;99.90;;;;;;3058810;19;20010;-70
2022/10/07 03:25:53;;;;;;;11.50;4.30;;;8.80;99.90;;;;;;3058693;19;20034;-70
2022/10/07 03:26:55;;;;;;;9.75;3.65;;;8.80;99.90;;;;;;3057901;19;20019;-70
2022/10/07 03:27:59;;;;;;;9.18;3.80;;;8.90;99.90;;;;;;3058622;19;20544;-70
2022/10/07 03:29:00;;;;;;;12.30;4.30;;;8.70;99.90;;;;;;3058856;19;20011;-70
2022/10/07 03:30:04;;;;;;;14.07;3.92;;;8.80;99.90;;;;;;3057588;19;20010;-71
2022/10/07 03:31:10;;;;;;;14.75;4.15;;;8.70;99.90;;;;;;3060196;19;20017;-71
2022/10/07 03:32:15;;;;;;;13.10;3.97;;;8.70;99.90;;;;;;3058553;19;20011;-70
2022/10/07 03:33:18;;;;;;;16.35;4.78;;;8.80;99.90;;;;;;3060174;19;20018;-70
2022/10/07 03:34:23;;;;;;;14.43;4.03;;;9.10;99.90;;;;;;3055898;19;20710;-70
2022/10/07 03:35:24;;;;;;;12.63;4.25;;;8.60;99.90;;;;;;3055193;19;20022;-71
2022/10/07 03:36:28;;;;;;;14.00;3.97;;;;;;;;;;3058191;19;20463;-70
2022/10/07 03:37:30;;;;;;;10.30;3.88;;;8.70;99.90;;;;;;3058084;19;20042;-70
2022/10/07 03:38:34;;;;;;;11.48;4.20;;;8.70;99.90;;;;;;3057963;19;20410;-70
2022/10/07 03:39:35;;;;;;;16.98;4.20;;;8.70;99.90;;;;;;3058446;19;20014;-70
2022/10/07 03:40:39;;;;;;;13.45;4.45;;;8.80;99.90;;;;;;3057723;19;20018;-70
2022/10/07 03:41:41;;;;;;;12.50;4.15;;;;;;;;;;3057408;19;20499;-70
2022/10/07 03:42:45;;;;;;;9.73;3.90;;;8.60;99.90;;;;;;3059626;19;20024;-70
2022/10/07 03:43:46;;;;;;;11.25;4.10;;;8.70;99.90;;;;;;3056950;19;20102;-70
2022/10/07 03:44:50;;;;;;;14.00;4.38;;;8.80;99.90;;;;;;3057343;19;20022;-70
2022/10/07 03:45:51;;;;;;;13.45;4.32;;;8.80;99.90;;;;;;3058501;19;20018;-70
2022/10/07 03:46:58;;;;;;;11.98;4.35;;;9.10;99.90;;;;;;3058058;19;20002;-70
2022/10/07 03:47:59;;;;;;;11.43;3.83;;;8.80;99.90;;;;;;3056836;19;20018;-70
2022/10/07 03:49:05;;;;;;;10.10;4.07;;;8.70;99.90;;;;;;3058640;19;20014;-70
2022/10/07 03:50:07;;;;;;;13.68;4.18;;;8.70;99.90;;;;;;3057428;19;20015;-70
2022/10/07 03:51:11;;;;;;;15.73;3.95;;;8.80;99.90;;;;;;3060346;19;20010;-70
2022/10/07 03:52:13;;;;;;;16.75;4.20;;;8.60;99.90;;;;;;3054614;19;20483;-70
2022/10/07 03:53:17;;;;;;;11.82;4.03;;;;;;;;;;3058582;19;20023;-70
2022/10/07 03:54:18;;;;;;;17.23;4.03;;;8.30;99.90;;;;;;3059144;19;20014;-70
2022/10/07 03:55:22;;;;;;;16.85;4.50;;;9.00;99.90;;;;;;3058559;19;20492;-70
2022/10/07 03:56:23;;;;;;;10.13;3.95;;;8.50;99.90;;;;;;3056520;19;20018;-70
2022/10/07 03:58:43;;;;;;;15.30;4.15;;;8.70;99.90;;;;;;3058054;19;20019;-70
2022/10/07 03:59:45;;;;;;;13.70;4.13;;;8.80;99.90;;;;;;3058500;19;20412;-70
2022/10/07 04:00:49;;;;;;;11.68;3.95;;;;;;;;;;3058158;19;20015;-70
2022/10/07 04:01:50;;;;;;;12.73;4.35;;;8.50;99.90;;;;;;3058984;19;20028;-70
2022/10/07 04:02:57;;;;;;;16.88;4.78;;;8.60;99.90;;;;;;3058749;19;20014;-70
2022/10/07 04:03:59;;;;;;;9.85;4.10;;;8.50;99.90;;;;;;3059844;19;20177;-69
2022/10/07 04:05:03;;;;;;;9.82;4.00;;;8.50;99.90;;;;;;3058395;19;20025;-69
2022/10/07 04:06:05;;;;;;;12.73;4.28;;;8.60;99.90;;;;;;3058460;19;20011;-69
2022/10/07 04:07:09;;;;;;;10.80;4.30;;;8.50;99.90;;;;;;3057137;19;20534;-70
2022/10/07 04:08:16;;;;;;;12.50;4.13;;;8.40;99.90;;;;;;3058526;19;20337;-70
2022/10/07 04:09:20;;;;;;;14.85;4.43;;;;;;;;;;3058017;19;20424;-69
2022/10/07 04:10:21;;;;;;;13.88;4.47;;;8.60;99.90;;;;;;3059663;19;20435;-69
2022/10/07 04:11:26;;;;;;;9.23;4.43;;;8.90;99.90;;;;;;3059487;19;20074;-70
2022/10/07 04:12:32;;;;;;;8.80;4.10;;;8.50;99.90;;;;;;3058341;19;20033;-70
2022/10/07 04:13:36;;;;;;;11.40;4.25;;;8.60;99.90;;;;;;3056870;19;20019;-69
2022/10/07 04:14:38;;;;;;;12.18;4.38;;;;;;;;;;3059510;19;20506;-70
2022/10/07 04:15:41;;;;;;;;;;;8.60;99.90;;;;;;3058623;19;20515;-70
2022/10/07 04:16:43;;;;;;;12.23;4.55;;;8.40;99.90;;;;;;3058688;19;19923;-70
2022/10/07 04:17:48;;;;;;;15.93;4.68;;;8.60;99.90;;;;;;3057513;19;20010;-70
2022/10/07 04:18:54;;;;;;;11.82;3.97;;;8.50;99.90;;;;;;3057402;19;20685;-70
2022/10/07 04:19:58;;;;;;;14.23;4.95;;;8.60;99.90;;;;;;3057928;19;20031;-70
2022/10/07 04:20:59;;;;;;;9.80;4.28;;;8.40;99.90;;;;;;3057794;19;20538;-71
2022/10/07 04:22:04;;;;;;;13.05;5.03;;;8.30;99.90;;;;;;3058016;19;20018;-70
2022/10/07 04:23:05;;;;;;;15.25;4.20;;;8.40;99.90;;;;;;3057955;19;20007;-70
2022/10/07 04:24:09;;;;;;;12.43;4.38;;;8.20;99.90;;;;;;3057156;19;20336;-70
2022/10/07 04:26:30;;;;;;;16.75;4.28;;;8.40;99.90;;;;;;3058198;19;20082;-70
2022/10/07 04:27:32;;;;;;;14.50;4.43;;;8.20;99.90;;;;;;3058008;19;20471;-70
2022/10/07 04:28:36;;;;;;;12.90;4.45;;;;;;;;;;3058181;19;20478;-70
2022/10/07 04:29:37;;;;;;;14.52;4.35;;;8.90;99.90;;;;;;3057838;19;20870;-70
2022/10/07 04:30:42;;;;;;;11.10;4.50;;;8.60;99.90;;;;;;3058312;19;20411;-70
2022/10/07 04:31:43;;;;;;;12.05;4.65;;;8.40;99.90;;;;;;3058028;19;20026;-70
2022/10/07 04:32:48;;;;;;;18.58;5.13;;;8.10;99.90;;;;;;3058455;19;20471;-70
2022/10/07 04:33:55;;;;;;;12.18;4.60;;;8.40;99.90;;;;;;3055745;19;20010;-70
2022/10/07 04:34:57;;;;;;;13.20;4.68;;;8.40;99.90;;;;;;3058378;19;20027;-70
2022/10/07 04:36:09;;;;;;;9.80;4.00;;;8.20;99.90;;;;;;3057738;19;20356;-70
2022/10/07 04:37:14;;;;;;;15.00;4.20;;;8.30;99.90;;;;;;3057380;19;20476;-70
2022/10/07 04:38:20;;;;;;;16.35;4.57;;;8.40;99.90;;;;;;3057659;19;20015;-70
2022/10/07 04:39:25;;;;;;;10.65;4.57;;;8.40;99.90;;;;;;3058134;19;20006;-70
2022/10/07 04:40:29;;;;;;;12.82;4.72;;;8.50;99.90;;;;;;3057954;19;20007;-70
2022/10/07 04:41:31;;;;;;;11.35;4.00;;;8.20;99.90;;;;;;3058114;19;20007;-70
2022/10/07 04:43:58;;;;;;;15.35;5.47;;;8.30;99.90;;;;;;3058779;19;20014;-70
2022/10/07 04:45:00;;;;;;;9.13;4.47;;;8.60;99.90;;;;;;3063311;19;20018;-70
2022/10/07 04:46:10;;;;;;;14.30;4.53;;;8.00;99.90;;;;;;3063517;19;20005;-70
2022/10/07 04:47:11;;;;;;;12.23;4.10;;;8.40;99.90;;;;;;3063289;19;20429;-70
2022/10/07 04:48:20;;;;;;;15.07;4.35;;;8.30;99.90;;;;;;3061023;19;20050;-71
2022/10/07 04:49:24;;;;;;;13.98;5.07;;;8.40;99.90;;;;;;3061053;19;20006;-71
2022/10/07 04:50:29;;;;;;;14.20;4.35;;;8.20;99.90;;;;;;3061027;19;20015;-70
2022/10/07 04:51:33;;;;;;;11.48;4.25;;;8.40;99.90;;;;;;3060886;19;20014;-71
2022/10/07 04:52:35;;;;;;;12.88;5.05;;;;;;;;;;3061172;19;20034;-71
2022/10/07 04:53:40;;;;;;;12.10;4.43;;;8.40;99.90;;;;;;3060195;19;20077;-70
2022/10/07 04:54:41;;;;;;;13.07;4.75;;;8.60;99.90;;;;;;3060791;19;20014;-70
2022/10/07 04:55:48;;;;;;;14.90;4.43;;;8.30;99.90;;;;;;3058812;19;21193;-70
2022/10/07 04:56:50;;;;;;;11.90;4.35;;;8.40;99.90;;;;;;3061566;19;20018;-70
2022/10/07 04:57:54;;;;;;;13.38;4.82;;;8.20;99.90;;;;;;3060752;19;20006;-70
2022/10/07 04:58:58;;;;;;;13.52;4.78;;;8.20;99.90;;;;;;3060740;19;20022;-70
2022/10/07 05:00:00;;;;;;;14.75;4.32;;;8.20;99.90;;;;;;3061395;19;20015;-70
2022/10/07 05:01:10;;;;;;;12.57;5.07;;;8.30;99.90;;;;;;3061159;19;20029;-70
2022/10/07 05:02:18;;;;;;;10.82;4.68;;;8.30;99.90;;;;;;3057729;19;20018;-70
2022/10/07 05:03:23;;;;;;;16.08;5.03;;;8.30;99.90;;;;;;3060540;19;20505;-70
2022/10/07 05:04:27;;;;;;;14.95;4.80;;;8.30;99.90;;;;;;3058191;19;20364;-70
2022/10/07 05:05:33;;;;;;;12.73;5.10;;;8.20;99.90;;;;;;3060001;19;20038;-70
2022/10/07 05:06:39;;;;;;;14.48;4.70;;;8.30;99.90;;;;;;3059703;19;20470;-70
2022/10/07 05:07:41;;;;;;;17.08;4.88;;;8.20;99.90;;;;;;3060263;19;20983;-71
2022/10/07 05:08:45;;;;;;;14.05;5.07;;;8.20;99.90;;;;;;3060345;19;20023;-70
2022/10/07 05:09:47;;;;;;;13.65;4.47;;;8.20;99.90;;;;;;3060255;19;20050;-70
2022/10/07 05:10:56;;;;;;;10.65;4.32;;;8.20;99.90;;;;;;3060086;19;20016;-70
2022/10/07 05:11:57;;;;;;;14.98;4.70;;;8.00;99.90;;;;;;3062047;19;20014;-70
2022/10/07 05:13:02;;;;;;;13.80;4.68;;;8.20;99.90;;;;;;3058475;19;20452;-70
2022/10/07 05:14:04;;;;;;;11.68;4.38;;;8.20;99.90;;;;;;3057475;19;20487;-70
2022/10/07 05:15:09;;;;;;;13.25;5.13;;;8.10;99.90;;;;;;3059914;19;20007;-70
2022/10/07 05:16:11;;;;;;;17.23;5.00;;;8.20;99.90;;;;;;3060655;19;20031;-70
2022/10/07 05:17:15;;;;;;;14.05;5.25;;;8.10;99.90;;;;;;3060560;19;20019;-70
2022/10/07 05:18:17;;;;;;;13.73;4.97;;;8.30;99.90;;;;;;3058633;19;20492;-70
2022/10/07 05:19:22;;;;;;;11.73;4.68;;;8.20;99.90;;;;;;3060628;19;20333;-70
2022/10/07 05:20:26;;;;;;;14.13;4.35;;;8.00;99.90;;;;;;3060937;19;20038;-70
2022/10/07 05:21:30;;;;;;;12.52;4.82;;;8.40;99.90;;;;;;3058125;19;20074;-70
2022/10/07 05:22:33;;;;;;;14.30;4.75;;;8.20;99.90;;;;;;3059773;19;20122;-70
2022/10/07 05:23:38;;;;;;;17.48;4.97;;;8.30;99.90;;;;;;3056960;19;20361;-70
2022/10/07 05:24:39;;;;;;;12.23;4.97;;;8.50;99.90;;;;;;3059973;19;20549;-70
2022/10/07 05:25:43;;;;;;;15.05;5.00;;;8.30;99.90;;;;;;3060635;19;20044;-70
2022/10/07 05:26:45;;;;;;;11.75;4.22;;;8.10;99.90;;;;;;3059838;19;20062;-70
2022/10/07 05:27:53;;;;;;;13.40;4.82;;;8.30;99.90;;;;;;3060498;19;20015;-70
2022/10/07 05:28:55;;;;;;;16.35;5.00;;;;;;;;;;3060635;19;20010;-70
2022/10/07 05:29:58;;;;;;;10.00;4.55;;;8.30;99.90;;;;;;3060124;19;20022;-70
2022/10/07 05:31:01;;;;;;;16.05;4.88;;;8.20;99.90;;;;;;3059441;19;20029;-70
2022/10/07 05:32:05;;;;;;;14.50;5.10;;;8.10;99.90;;;;;;3060685;19;20015;-70
2022/10/07 05:33:08;;;;;;;19.65;5.00;;;8.30;99.90;;;;;;3059954;19;20562;-70
2022/10/07 05:34:13;;;;;;;12.93;4.70;;;8.40;99.90;;;;;;3060352;19;20022;-70
2022/10/07 05:35:15;;;;;;;13.70;5.03;;;8.20;99.90;;;;;;3060453;19;20362;-70
2022/10/07 05:36:22;;;;;;;15.15;6.00;;;7.80;99.90;;;;;;3059316;19;20074;-70
2022/10/07 05:37:24;;;;;;;17.35;4.93;;;8.10;99.90;;;;;;3060380;19;20419;-70
2022/10/07 05:38:28;;;;;;;16.73;5.97;;;8.00;99.90;;;;;;3057981;19;20021;-70
2022/10/07 05:39:29;;;;;;;13.18;5.05;;;8.10;99.90;;;;;;3060443;19;20031;-70
2022/10/07 05:40:33;;;;;;;16.13;5.18;;;8.50;99.90;;;;;;3056623;19;20483;-70
2022/10/07 05:41:35;;;;;;;16.42;5.45;;;8.10;99.90;;;;;;3061406;19;20015;-70
2022/10/07 05:42:38;;;;;;;16.75;4.95;;;8.10;99.90;;;;;;3057972;19;20035;-69
2022/10/07 05:43:41;;;;;;;14.60;5.13;;;8.20;99.90;;;;;;3059527;19;20014;-70
2022/10/07 05:44:45;;;;;;;13.18;4.57;;;8.10;99.90;;;;;;3060205;19;20041;-70
2022/10/07 05:45:47;;;;;;;15.70;5.30;;;8.00;99.90;;;;;;3060154;19;20026;-70
2022/10/07 05:46:50;;;;;;;12.38;5.30;;;8.10;99.90;;;;;;3060268;19;20406;-70
2022/10/07 05:47:53;;;;;;;16.33;5.45;;;;;;;;;;3060985;19;20018;-70